createdAt,value
2023-05-02T00:00:10.884Z,7.4677
2023-05-02T00:01:12.871Z,9.4577
2023-05-02T00:02:15.022Z,7.1206
2023-05-02T00:03:17.503Z,6.7880
2023-05-02T00:04:19.790Z,6.7878
2023-05-02T00:05:22.228Z,7.1222
2023-05-02T00:06:24.284Z,7.4111
2023-05-02T00:07:26.283Z,7.8760
2023-05-02T00:08:28.319Z,7.9369
2023-05-02T00:09:30.349Z,8.2897
2023-05-02T00:10:32.357Z,8.5213
2023-05-02T00:11:34.395Z,7.6446
2023-05-02T00:12:36.425Z,8.8144
2023-05-02T00:13:38.468Z,8.1731
2023-05-02T00:14:40.477Z,5.8365
2023-05-02T00:15:42.480Z,6.4207
2023-05-02T00:16:44.518Z,7.7038
2023-05-02T00:17:46.535Z,8.3482
2023-05-02T00:18:48.537Z,7.0025
2023-05-02T00:19:50.587Z,8.3463
2023-05-02T00:20:52.608Z,8.4068
2023-05-02T00:21:54.631Z,9.1024
2023-05-02T00:22:56.681Z,10.1560
2023-05-02T00:23:58.707Z,8.9300
2023-05-02T00:25:00.755Z,9.1597
2023-05-02T00:26:02.793Z,11.1459
2023-05-02T00:27:04.829Z,8.7532
2023-05-02T00:28:06.869Z,10.0948
2023-05-02T00:29:08.906Z,9.9188
2023-05-02T00:30:11.710Z,8.3573
2023-05-02T00:31:13.805Z,6.8307
2023-05-02T00:32:15.787Z,6.5902
2023-05-02T00:33:17.841Z,9.6265
2023-05-02T00:34:19.854Z,10.2740
2023-05-02T00:35:21.875Z,10.4508
2023-05-02T00:36:23.895Z,9.1674
2023-05-02T00:37:25.912Z,7.8195
2023-05-02T00:38:27.987Z,8.3435
2023-05-02T00:39:30.048Z,10.2658
2023-05-02T00:40:32.092Z,11.2593
2023-05-02T00:41:34.126Z,8.8702
2023-05-02T00:42:36.456Z,7.8782
2023-05-02T00:43:38.650Z,8.1687
2023-05-02T00:44:40.710Z,9.9169
2023-05-02T00:45:42.763Z,8.2228
2023-05-02T00:46:44.841Z,8.3470
2023-05-02T00:47:46.889Z,6.0621
2023-05-02T00:48:48.933Z,7.9393
2023-05-02T00:49:50.956Z,5.6620
2023-05-02T00:50:52.978Z,5.2508
2023-05-02T00:51:55.052Z,5.8954
2023-05-02T00:52:57.045Z,8.6941
2023-05-02T00:53:59.063Z,7.4707
2023-05-02T00:55:01.099Z,8.2910
2023-05-02T00:56:03.132Z,8.3442
2023-05-02T00:57:05.183Z,8.1109
2023-05-02T00:58:07.231Z,5.6596
2023-05-02T00:59:09.267Z,7.5270
2023-05-02T01:00:11.350Z,6.9431
2023-05-02T01:01:13.413Z,5.9501
2023-05-02T01:02:15.472Z,5.3099
2023-05-02T01:03:17.721Z,6.5217
2023-05-02T01:04:19.875Z,8.9613
2023-05-02T01:05:21.887Z,7.2276
2023-05-02T01:06:23.940Z,6.3063
2023-05-02T01:07:25.954Z,6.5333
2023-05-02T01:08:27.976Z,5.6613
2023-05-02T01:09:30.000Z,6.6553
2023-05-02T01:10:32.050Z,7.0030
2023-05-02T01:11:34.087Z,5.8343
2023-05-02T01:12:36.122Z,5.8359
2023-05-02T01:13:38.181Z,8.5773
2023-05-02T01:14:40.278Z,7.2927
2023-05-02T01:15:42.390Z,4.7229
2023-05-02T01:16:44.656Z,6.7033
2023-05-02T01:17:46.913Z,5.3490
2023-05-02T01:18:48.964Z,5.9835
2023-05-02T01:19:51.090Z,4.8465
2023-05-02T01:20:53.136Z,4.5445
2023-05-02T01:21:55.114Z,3.9698
2023-05-02T01:22:57.155Z,5.0787
2023-05-02T01:23:59.187Z,3.4431
2023-05-02T01:25:01.555Z,4.7016
2023-05-02T01:26:03.583Z,4.6687
2023-05-02T01:27:05.635Z,4.7854
2023-05-02T01:28:07.697Z,4.3757
2023-05-02T01:29:09.746Z,1.6339
2023-05-02T01:30:11.761Z,3.0931
2023-05-02T01:31:13.807Z,3.8509
2023-05-02T01:32:15.820Z,2.2764
2023-05-02T01:33:17.879Z,2.9754
2023-05-02T01:34:19.927Z,2.8006
2023-05-02T01:35:21.975Z,3.8502
2023-05-02T01:36:23.982Z,5.0775
2023-05-02T01:37:26.002Z,6.9455
2023-05-02T01:38:28.010Z,6.6560
2023-05-02T01:39:30.053Z,3.4447
2023-05-02T01:40:32.126Z,2.5661
2023-05-02T01:41:34.167Z,3.4425
2023-05-02T01:42:36.910Z,4.9039
2023-05-02T01:43:38.972Z,4.6678
2023-05-02T01:44:40.994Z,5.4269
2023-05-02T01:45:43.001Z,5.1937
2023-05-02T01:46:45.060Z,4.2617
2023-05-02T01:47:47.140Z,3.6756
2023-05-02T01:48:49.143Z,5.1920
2023-05-02T01:49:51.158Z,4.3774
2023-05-02T01:50:53.245Z,3.2096
2023-05-02T01:51:55.239Z,3.3266
2023-05-02T01:52:57.260Z,4.7276
2023-05-02T01:53:59.307Z,3.9087
2023-05-02T01:55:01.336Z,2.8013
2023-05-02T01:56:03.381Z,2.9765
2023-05-02T01:57:05.406Z,2.2173
2023-05-02T01:58:07.438Z,0.6421
2023-05-02T01:59:09.441Z,2.7438
2023-05-02T02:00:11.470Z,2.7425
2023-05-02T02:01:13.517Z,1.9845
2023-05-02T02:02:15.531Z,3.9103
2023-05-02T02:03:17.635Z,2.6266
2023-05-02T02:04:19.752Z,2.4496
2023-05-02T02:05:21.602Z,4.3246
2023-05-02T02:06:23.672Z,3.6765
2023-05-02T02:07:25.715Z,2.5074
2023-05-02T02:08:27.672Z,1.8687
2023-05-02T02:09:29.704Z,0.9337
2023-05-02T02:10:31.725Z,0.3503
2023-05-02T02:11:33.716Z,1.6932
2023-05-02T02:12:36.072Z,2.6710
2023-05-02T02:13:38.106Z,2.9180
2023-05-02T02:14:40.134Z,3.0357
2023-05-02T02:15:42.165Z,4.4344
2023-05-02T02:16:44.246Z,3.7363
2023-05-02T02:17:46.428Z,3.1465
2023-05-02T02:18:48.468Z,2.6807
2023-05-02T02:19:50.530Z,3.2665
2023-05-02T02:20:52.552Z,2.5101
2023-05-02T02:21:54.601Z,3.9664
2023-05-02T02:22:56.630Z,4.0269
2023-05-02T02:23:58.661Z,4.5515
2023-05-02T02:25:00.705Z,6.1263
2023-05-02T02:26:02.785Z,5.6620
2023-05-02T02:27:04.843Z,4.9562
2023-05-02T02:28:06.871Z,5.4263
2023-05-02T02:29:08.865Z,4.5523
2023-05-02T02:30:11.238Z,4.8760
2023-05-02T02:31:13.331Z,4.5541
2023-05-02T02:32:15.359Z,5.2459
2023-05-02T02:33:17.376Z,4.7861
2023-05-02T02:34:19.440Z,4.1442
2023-05-02T02:35:21.693Z,2.0921
2023-05-02T02:36:23.708Z,2.9192
2023-05-02T02:37:25.752Z,3.1506
2023-05-02T02:38:27.761Z,3.7946
2023-05-02T02:39:29.790Z,4.1452
2023-05-02T02:40:31.845Z,3.3261
2023-05-02T02:41:33.880Z,3.6178
2023-05-02T02:42:35.926Z,3.6760
2023-05-02T02:43:37.931Z,4.9011
2023-05-02T02:44:40.213Z,4.3600
2023-05-02T02:45:42.242Z,2.9766
2023-05-02T02:46:44.359Z,4.6701
2023-05-02T02:47:46.430Z,5.5375
2023-05-02T02:48:48.396Z,4.2020
2023-05-02T02:49:50.444Z,3.6771
2023-05-02T02:50:52.444Z,1.5759
2023-05-02T02:51:54.451Z,3.2694
2023-05-02T02:52:56.536Z,3.3845
2023-05-02T02:53:58.568Z,3.5001
2023-05-02T02:55:00.628Z,3.8507
2023-05-02T02:56:02.617Z,5.1370
2023-05-02T02:57:04.652Z,5.0184
2023-05-02T02:58:06.664Z,4.9037
2023-05-02T02:59:08.702Z,6.2476
2023-05-02T03:00:10.738Z,6.4164
2023-05-02T03:01:12.766Z,5.4299
2023-05-02T03:02:14.772Z,6.0704
2023-05-02T03:03:16.885Z,6.3615
2023-05-02T03:04:18.940Z,5.1874
2023-05-02T03:05:19.070Z,6.0798
2023-05-02T03:06:21.227Z,5.8341
2023-05-02T03:07:23.268Z,5.2424
2023-05-02T03:08:25.302Z,5.5437
2023-05-02T03:09:27.371Z,5.0762
2023-05-02T03:10:29.367Z,5.4277
2023-05-02T03:11:31.394Z,6.9464
2023-05-02T03:12:33.429Z,6.4792
2023-05-02T03:13:35.421Z,4.4357
2023-05-02T03:14:37.455Z,5.7198
2023-05-02T03:15:40.005Z,3.9968
2023-05-02T03:16:42.115Z,2.6840
2023-05-02T03:17:44.361Z,1.1633
2023-05-02T03:18:46.383Z,1.6897
2023-05-02T03:19:48.518Z,0.2913
2023-05-02T03:20:50.513Z,2.5100
2023-05-02T03:21:52.551Z,4.4352
2023-05-02T03:22:54.607Z,5.0768
2023-05-02T03:23:56.629Z,5.6017
2023-05-02T03:24:58.661Z,5.7210
2023-05-02T03:26:00.654Z,5.6040
2023-05-02T03:27:02.658Z,5.0212
2023-05-02T03:28:04.718Z,4.3766
2023-05-02T03:29:06.734Z,5.1944
2023-05-02T03:30:08.751Z,3.9106
2023-05-02T03:31:10.787Z,3.2105
2023-05-02T03:32:13.136Z,2.0369
2023-05-02T03:33:15.426Z,1.8597
2023-05-02T03:34:17.411Z,3.2622
2023-05-02T03:35:19.672Z,3.8387
2023-05-02T03:36:21.691Z,3.6188
2023-05-02T03:37:23.740Z,3.6184
2023-05-02T03:38:25.776Z,4.1421
2023-05-02T03:39:27.799Z,3.5607
2023-05-02T03:40:29.829Z,3.7928
2023-05-02T03:41:31.913Z,4.7857
2023-05-02T03:42:33.958Z,4.0241
2023-05-02T03:43:36.045Z,3.3851
2023-05-02T03:44:38.025Z,3.9089
2023-05-02T03:45:40.041Z,3.6774
2023-05-02T03:46:42.098Z,2.3348
2023-05-02T03:47:44.434Z,3.7757
2023-05-02T03:48:46.451Z,4.6087
2023-05-02T03:49:48.505Z,2.5673
2023-05-02T03:50:50.548Z,3.8507
2023-05-02T03:51:52.571Z,2.0428
2023-05-02T03:52:54.666Z,1.2834
2023-05-02T03:53:56.707Z,1.5166
2023-05-02T03:54:58.757Z,2.7425
2023-05-02T03:56:00.797Z,3.2672
2023-05-02T03:57:02.841Z,3.5021
2023-05-02T03:58:04.873Z,4.3756
2023-05-02T03:59:06.906Z,4.4350
2023-05-02T04:00:07.062Z,2.7687
2023-05-02T04:01:09.085Z,3.5019
2023-05-02T04:02:11.152Z,2.7431
2023-05-02T04:03:13.263Z,3.4974
2023-05-02T04:04:15.310Z,1.9252
2023-05-02T04:05:17.344Z,2.8580
2023-05-02T04:06:19.441Z,2.3928
2023-05-02T04:07:21.459Z,3.4398
2023-05-02T04:08:23.471Z,2.8017
2023-05-02T04:09:25.645Z,2.0430
2023-05-02T04:10:27.720Z,1.8625
2023-05-02T04:11:29.751Z,1.8088
2023-05-02T04:12:31.835Z,1.4000
2023-05-02T04:13:33.856Z,1.4003
2023-05-02T04:14:35.881Z,1.3425
2023-05-02T04:15:37.931Z,1.2258
2023-05-02T04:16:39.960Z,1.7504
2023-05-02T04:17:42.009Z,1.2255
2023-05-02T04:18:44.035Z,1.5171
2023-05-02T04:19:46.116Z,1.2830
2023-05-02T04:20:48.148Z,1.5171
2023-05-02T04:21:50.212Z,0.0000
2023-05-02T04:22:50.413Z,0.0601
2023-05-02T04:23:52.443Z,0.2917
2023-05-02T04:24:54.505Z,0.2334
2023-05-02T04:25:56.540Z,0.0000
2023-05-02T04:26:58.590Z,1.5750
2023-05-02T04:28:00.606Z,2.9767
2023-05-02T04:29:02.630Z,2.4513
2023-05-02T04:30:04.667Z,1.6345
2023-05-02T04:31:06.740Z,0.0000
2023-05-02T04:32:08.732Z,0.5833
2023-05-02T04:33:10.832Z,1.3426
2023-05-02T04:34:12.822Z,0.5833
2023-05-02T04:35:14.852Z,0.0000
2023-05-02T04:36:16.880Z,0.0000
2023-05-02T04:37:18.948Z,0.3500
2023-05-02T04:38:21.048Z,0.0000
2023-05-02T04:39:23.158Z,0.0000
2023-05-02T04:40:25.171Z,0.0000
2023-05-02T04:41:27.206Z,0.0000
2023-05-02T04:42:29.219Z,0.0000
2023-05-02T04:43:31.249Z,0.0000
2023-05-02T04:44:33.273Z,0.0000
2023-05-02T04:45:35.299Z,0.0000
2023-05-02T04:46:37.384Z,0.0000
2023-05-02T04:47:39.469Z,0.0000
2023-05-02T04:48:41.491Z,0.0000
2023-05-02T04:49:43.518Z,0.0000
2023-05-02T04:50:45.583Z,0.0000
2023-05-02T04:51:47.579Z,0.0000
2023-05-02T04:52:49.614Z,0.0000
2023-05-02T04:53:51.712Z,0.0000
2023-05-02T04:54:53.778Z,0.0583
2023-05-02T04:55:55.884Z,3.0330
2023-05-02T04:56:57.898Z,3.4416
2023-05-02T04:57:59.933Z,2.3918
2023-05-02T04:59:02.004Z,2.0427
2023-05-02T05:00:04.289Z,2.8511
2023-05-02T05:01:06.288Z,1.8663
2023-05-02T05:02:08.481Z,1.9259
2023-05-02T05:03:10.740Z,0.8132
2023-05-02T05:04:12.841Z,0.0583
2023-05-02T05:05:14.980Z,1.1642
2023-05-02T05:06:17.090Z,0.6419
2023-05-02T05:07:19.098Z,0.1166
2023-05-02T05:08:21.131Z,0.0584
2023-05-02T05:09:23.169Z,1.2258
2023-05-02T05:10:25.215Z,3.5001
2023-05-02T05:11:27.257Z,2.4514
2023-05-02T05:12:29.284Z,2.2175
2023-05-02T05:13:31.324Z,1.4003
2023-05-02T05:14:33.354Z,1.0507
2023-05-02T05:15:35.451Z,1.4583
2023-05-02T05:16:37.561Z,0.1166
2023-05-02T05:17:39.737Z,0.4076
2023-05-02T05:18:41.752Z,0.9326
2023-05-02T05:19:43.774Z,0.3503
2023-05-02T05:20:46.119Z,0.0000
2023-05-02T05:21:48.378Z,0.2918
2023-05-02T05:22:50.460Z,0.4069
2023-05-02T05:23:52.480Z,0.2917
2023-05-02T05:24:54.504Z,0.6420
2023-05-02T05:25:56.530Z,1.9843
2023-05-02T05:26:58.560Z,2.2763
2023-05-02T05:28:00.604Z,2.8590
2023-05-02T05:29:02.659Z,2.5678
2023-05-02T05:30:04.707Z,2.6248
2023-05-02T05:31:06.780Z,1.9836
2023-05-02T05:32:08.812Z,1.5171
2023-05-02T05:33:11.266Z,3.0196
2023-05-02T05:34:13.371Z,3.4348
2023-05-02T05:35:15.429Z,2.6239
2023-05-02T05:36:17.484Z,1.3992
2023-05-02T05:37:19.563Z,2.2756
2023-05-02T05:38:21.612Z,0.6416
2023-05-02T05:39:23.664Z,1.0499
2023-05-02T05:40:25.715Z,3.0339
2023-05-02T05:41:27.769Z,4.7251
2023-05-02T05:42:29.834Z,3.7342
2023-05-02T05:43:31.906Z,3.6742
2023-05-02T05:44:33.989Z,4.7247
2023-05-02T05:45:36.084Z,2.5065
2023-05-02T05:46:38.249Z,2.7993
2023-05-02T05:47:40.432Z,1.3984
2023-05-02T05:48:42.597Z,3.2542
2023-05-02T05:49:44.638Z,1.2833
2023-05-02T05:50:46.715Z,2.3915
2023-05-02T05:51:48.795Z,1.9244
2023-05-02T05:52:50.867Z,3.3837
2023-05-02T05:53:52.943Z,2.9155
2023-05-02T05:54:55.029Z,2.5078
2023-05-02T05:55:57.095Z,2.6235
2023-05-02T05:56:59.177Z,3.6164
2023-05-02T05:58:01.253Z,2.5079
2023-05-02T05:59:03.341Z,1.3993
2023-05-02T06:00:05.455Z,0.2916
2023-05-02T06:01:07.770Z,2.9597
2023-05-02T06:02:09.864Z,2.6844
2023-05-02T06:03:12.326Z,1.5102
2023-05-02T06:04:14.553Z,0.0000
2023-05-02T06:05:16.641Z,0.8149
2023-05-02T06:06:18.701Z,0.8167
2023-05-02T06:07:20.762Z,1.5168
2023-05-02T06:08:23.132Z,1.4508
2023-05-02T06:09:25.181Z,2.2171
2023-05-02T06:10:27.234Z,2.0422
2023-05-02T06:11:29.329Z,2.2745
2023-05-02T06:12:31.365Z,2.2750
2023-05-02T06:13:33.418Z,2.1001
2023-05-02T06:14:35.569Z,0.6999
2023-05-02T06:15:37.662Z,1.4572
2023-05-02T06:16:39.773Z,0.6414
2023-05-02T06:17:41.798Z,1.1083
2023-05-02T06:18:43.860Z,0.3497
2023-05-02T06:19:45.914Z,0.7002
2023-05-02T06:20:47.973Z,0.0000
2023-05-02T06:21:50.035Z,0.6415
2023-05-02T06:22:52.119Z,0.0000
2023-05-02T06:23:54.246Z,0.0000
2023-05-02T06:24:56.284Z,0.2332
2023-05-02T06:25:58.356Z,0.1166
2023-05-02T06:27:00.428Z,0.0583
2023-05-02T06:28:02.487Z,0.0000
2023-05-02T06:29:04.553Z,1.3416
2023-05-02T06:30:06.672Z,0.6996
2023-05-02T06:31:08.758Z,2.2749
2023-05-02T06:32:10.848Z,3.2637
2023-05-02T06:33:12.951Z,2.5072
2023-05-02T06:34:15.030Z,2.9729
2023-05-02T06:35:17.110Z,0.6415
2023-05-02T06:36:19.194Z,2.4497
2023-05-02T06:37:21.243Z,1.6331
2023-05-02T06:38:23.320Z,2.9741
2023-05-02T06:39:25.397Z,2.7993
2023-05-02T06:40:27.536Z,2.4494
2023-05-02T06:41:29.608Z,0.8745
2023-05-02T06:42:31.665Z,0.7578
2023-05-02T06:43:33.732Z,0.0000
2023-05-02T06:44:35.794Z,0.6416
2023-05-02T06:45:37.865Z,1.6920
2023-05-02T06:46:39.987Z,0.3499
2023-05-02T06:47:42.114Z,0.0583
2023-05-02T06:48:44.137Z,0.0000
2023-05-02T06:49:46.216Z,0.0000
2023-05-02T06:50:48.327Z,0.0000
2023-05-02T06:51:50.402Z,0.0000
2023-05-02T06:52:52.460Z,0.0000
2023-05-02T06:53:54.552Z,1.4000
2023-05-02T06:54:56.598Z,2.7998
2023-05-02T06:55:58.700Z,3.3244
2023-05-02T06:57:00.761Z,3.3812
2023-05-02T06:58:02.807Z,1.8667
2023-05-02T06:59:04.858Z,2.6840
2023-05-02T07:00:06.980Z,2.6243
2023-05-02T07:01:09.190Z,1.8656
2023-05-02T07:02:11.274Z,0.1746
2023-05-02T07:03:13.383Z,1.4001
2023-05-02T07:04:15.484Z,3.6118
2023-05-02T07:05:17.552Z,0.8746
2023-05-02T07:06:19.648Z,0.6998
2023-05-02T07:07:21.732Z,2.3895
2023-05-02T07:08:23.858Z,3.2065
2023-05-02T07:09:25.982Z,3.2066
2023-05-02T07:10:28.038Z,2.3322
2023-05-02T07:11:30.060Z,2.8001
2023-05-02T07:12:32.170Z,3.0892
2023-05-02T07:13:34.205Z,3.2098
2023-05-02T07:14:36.263Z,3.6170
2023-05-02T07:15:38.331Z,2.6831
2023-05-02T07:16:40.514Z,3.6744
2023-05-02T07:17:42.644Z,4.2478
2023-05-02T07:18:44.701Z,2.3332
2023-05-02T07:19:46.770Z,3.0905
2023-05-02T07:20:48.834Z,3.1491
2023-05-02T07:21:50.894Z,3.3846
2023-05-02T07:22:52.927Z,2.5669
2023-05-02T07:23:54.975Z,4.7841
2023-05-02T07:24:57.178Z,5.6457
2023-05-02T07:25:59.219Z,5.5436
2023-05-02T07:27:01.706Z,4.0259
2023-05-02T07:28:03.803Z,3.1863
2023-05-02T07:29:05.888Z,2.3320
2023-05-02T07:30:08.098Z,1.8074
2023-05-02T07:31:10.183Z,1.2802
2023-05-02T07:32:12.284Z,3.7348
2023-05-02T07:33:14.331Z,4.8958
2023-05-02T07:34:16.503Z,6.3550
2023-05-02T07:35:18.555Z,4.4869
2023-05-02T07:36:20.595Z,4.2010
2023-05-02T07:37:22.705Z,5.4814
2023-05-02T07:38:24.796Z,3.4393
2023-05-02T07:39:26.832Z,2.6829
2023-05-02T07:40:28.900Z,4.9003
2023-05-02T07:41:30.958Z,4.6082
2023-05-02T07:42:33.038Z,3.7332
2023-05-02T07:43:35.100Z,2.1586
2023-05-02T07:44:37.181Z,4.4312
2023-05-02T07:45:39.243Z,4.5495
2023-05-02T07:46:41.410Z,3.2074
2023-05-02T07:47:43.579Z,2.9107
2023-05-02T07:48:45.700Z,4.1348
2023-05-02T07:49:47.759Z,4.7810
2023-05-02T07:50:49.856Z,4.1407
2023-05-02T07:51:51.919Z,3.4418
2023-05-02T07:52:54.016Z,2.9148
2023-05-02T07:53:56.097Z,2.9739
2023-05-02T07:54:58.178Z,3.1487
2023-05-02T07:56:00.261Z,1.3414
2023-05-02T07:57:02.409Z,2.8572
2023-05-02T07:58:04.479Z,2.5044
2023-05-02T07:59:06.522Z,3.1505
2023-05-02T08:00:10.240Z,2.9596
2023-05-02T08:01:16.701Z,1.3595
2023-05-02T08:02:18.843Z,0.0000
2023-05-02T08:03:20.997Z,2.0969
2023-05-02T08:04:23.356Z,2.0351
2023-05-02T08:05:25.450Z,1.4537
2023-05-02T08:06:27.536Z,2.6829
2023-05-02T08:07:29.638Z,3.4974
2023-05-02T08:08:31.733Z,2.7991
2023-05-02T08:09:33.805Z,4.1979
2023-05-02T08:10:35.898Z,2.7995
2023-05-02T08:11:37.989Z,1.8650
2023-05-02T08:12:40.105Z,0.0000
2023-05-02T08:13:42.171Z,0.8162
2023-05-02T08:14:44.252Z,2.1574
2023-05-02T08:15:46.399Z,2.2152
2023-05-02T08:16:48.541Z,2.6241
2023-05-02T08:17:50.906Z,3.6569
2023-05-02T08:18:52.985Z,4.2509
2023-05-02T08:19:55.076Z,3.4987
2023-05-02T08:20:57.137Z,2.9158
2023-05-02T08:21:59.265Z,1.2828
2023-05-02T08:23:01.615Z,1.0441
2023-05-02T08:25:04.262Z,0.7000
2023-05-02T08:26:06.351Z,0.4664
2023-05-02T08:27:08.424Z,0.7580
2023-05-02T08:28:10.522Z,0.0000
2023-05-02T08:29:12.637Z,0.0000
2023-05-02T08:30:14.784Z,0.0582
2023-05-02T08:31:16.938Z,0.0583
2023-05-02T08:32:18.964Z,0.0583
2023-05-02T08:33:21.127Z,0.6414
2023-05-02T08:34:23.158Z,0.1165
2023-05-02T08:35:25.241Z,3.2667
2023-05-02T08:36:27.294Z,2.7992
2023-05-02T08:37:29.384Z,1.8076
2023-05-02T08:38:31.449Z,1.4000
2023-05-02T08:39:33.501Z,2.0417
2023-05-02T08:40:42.174Z,0.6416
2023-05-02T08:41:36.283Z,0.7756
2023-05-02T08:42:38.362Z,1.1661
2023-05-02T08:43:40.440Z,2.1578
2023-05-02T08:44:42.521Z,2.2744
2023-05-02T08:45:44.717Z,2.5071
2023-05-02T08:46:46.852Z,1.5724
2023-05-02T08:47:49.258Z,3.4793
2023-05-02T08:48:51.326Z,3.2636
2023-05-02T08:49:53.479Z,4.2528
2023-05-02T08:50:55.544Z,3.6740
2023-05-02T08:51:57.663Z,2.9156
2023-05-02T08:52:59.736Z,0.6997
2023-05-02T08:54:01.794Z,0.0583
2023-05-02T08:55:04.065Z,1.9241
2023-05-02T08:56:06.452Z,2.2004
2023-05-02T08:57:08.766Z,0.3481
2023-05-02T08:58:10.867Z,0.0000
2023-05-02T08:59:12.972Z,1.9809
2023-05-02T09:00:15.063Z,2.1573
2023-05-02T09:01:17.188Z,4.2560
2023-05-02T09:02:19.261Z,4.4295
2023-05-02T09:03:23.376Z,2.3333
2023-05-02T09:04:22.240Z,1.6651
2023-05-02T09:05:24.339Z,0.2332
2023-05-02T09:06:26.480Z,2.6814
2023-05-02T09:07:28.566Z,4.1938
2023-05-02T09:08:30.632Z,1.6906
2023-05-02T09:09:39.778Z,1.5754
2023-05-02T09:10:34.553Z,2.1643
2023-05-02T09:11:36.391Z,0.9953
2023-05-02T09:12:38.443Z,1.7504
2023-05-02T09:13:40.524Z,2.4501
2023-05-02T09:15:45.938Z,2.7406
2023-05-02T09:16:48.067Z,1.3983
2023-05-02T09:17:50.137Z,1.6324
2023-05-02T09:18:52.180Z,1.5747
2023-05-02T09:19:54.181Z,1.4597
2023-05-02T09:20:56.238Z,5.4257
2023-05-02T09:21:58.314Z,3.7921
2023-05-02T09:23:03.875Z,2.9256
2023-05-02T09:24:05.934Z,1.6333
2023-05-02T09:25:08.099Z,2.3921
2023-05-02T09:26:10.168Z,3.4356
2023-05-02T09:27:12.284Z,3.1497
2023-05-02T09:28:14.309Z,2.1580
2023-05-02T09:29:23.894Z,3.7197
2023-05-02T09:30:25.983Z,3.2411
2023-05-02T09:31:49.792Z,1.7494
2023-05-02T09:32:34.384Z,3.8752
2023-05-02T09:33:36.571Z,2.2742
2023-05-02T09:34:38.620Z,2.3300
2023-05-02T09:35:40.719Z,2.2739
2023-05-02T09:36:42.792Z,2.9740
2023-05-02T09:37:44.854Z,3.3828
2023-05-02T09:38:46.932Z,4.7815
2023-05-02T09:39:48.915Z,6.4251
2023-05-02T09:40:50.959Z,2.7414
2023-05-02T09:41:53.031Z,1.9248
2023-05-02T09:42:54.939Z,0.0585
2023-05-02T09:43:57.023Z,2.0991
2023-05-02T09:44:59.276Z,0.9913
2023-05-02T09:46:01.652Z,2.3761
2023-05-02T09:47:03.695Z,3.3194
2023-05-02T09:48:05.837Z,2.7411
2023-05-02T09:49:07.883Z,3.7308
2023-05-02T09:50:09.939Z,2.1000
2023-05-02T09:51:12.030Z,4.0820
2023-05-02T09:52:14.131Z,1.2828
2023-05-02T09:53:16.275Z,1.8065
2023-05-02T09:54:18.361Z,2.9731
2023-05-02T09:55:20.716Z,3.1337
2023-05-02T09:56:23.966Z,1.9252
2023-05-02T09:57:23.243Z,2.7534
2023-05-02T09:58:25.371Z,2.5088
2023-05-02T09:59:27.451Z,1.3461
2023-05-02T10:00:29.540Z,2.0317
2023-05-02T10:01:31.634Z,3.3234
2023-05-02T10:03:33.825Z,1.6903
2023-05-02T10:04:36.011Z,1.3411
2023-05-02T10:05:38.096Z,3.4362
2023-05-02T10:06:40.303Z,3.0313
2023-05-02T10:07:42.401Z,3.1414
2023-05-02T10:08:44.467Z,7.0590
2023-05-02T10:09:46.605Z,3.2065
2023-05-02T10:10:48.959Z,2.6113
2023-05-02T10:11:51.032Z,2.2744
2023-05-02T10:12:53.132Z,2.8564
2023-05-02T10:14:58.904Z,5.7154
2023-05-02T10:16:01.039Z,3.4871
2023-05-02T10:17:03.164Z,6.9383
2023-05-02T10:19:08.523Z,1.5160
2023-05-02T10:20:10.595Z,4.4895
2023-05-02T10:21:12.639Z,5.7754
2023-05-02T10:22:14.721Z,7.7007
2023-05-02T10:23:16.865Z,5.0146
2023-05-02T10:24:18.930Z,2.9153
2023-05-02T10:25:21.002Z,2.7972
2023-05-02T10:26:23.098Z,3.3251
2023-05-02T10:27:25.155Z,3.0315
2023-05-02T10:28:27.252Z,3.3836
2023-05-02T10:29:29.311Z,3.9068
2023-05-02T10:30:30.275Z,4.7493
2023-05-02T10:31:32.412Z,3.9090
2023-05-02T10:32:34.888Z,1.9707
2023-05-02T10:33:36.957Z,2.3292
2023-05-02T10:34:39.104Z,2.5080
2023-05-02T10:35:39.467Z,4.0142
2023-05-02T10:37:45.048Z,5.4230
2023-05-02T10:38:47.060Z,2.1567
2023-05-02T10:39:49.144Z,3.2664
2023-05-02T10:40:51.171Z,2.7425
2023-05-02T10:41:53.235Z,1.2251
2023-05-02T10:42:55.299Z,1.6915
2023-05-02T10:43:57.132Z,2.6343
2023-05-02T10:44:59.467Z,2.9750
2023-05-02T10:46:01.657Z,5.0421
2023-05-02T10:47:03.790Z,2.4505
2023-05-02T10:48:04.390Z,1.5515
2023-05-02T10:49:06.463Z,1.7491
2023-05-02T10:50:08.589Z,1.5747
2023-05-02T10:51:10.640Z,2.8566
2023-05-02T10:52:12.743Z,4.0236
2023-05-02T10:53:14.806Z,3.3822
2023-05-02T10:54:16.781Z,5.6084
2023-05-02T10:55:18.841Z,6.2976
2023-05-02T10:56:20.892Z,2.1586
2023-05-02T10:57:22.989Z,1.3998
2023-05-02T10:58:25.098Z,2.3328
2023-05-02T10:59:27.146Z,4.8396
2023-05-02T11:00:27.205Z,3.1965
2023-05-02T11:01:29.440Z,5.0697
2023-05-02T11:02:31.751Z,6.8440
2023-05-02T11:03:33.909Z,5.4791
2023-05-02T11:04:35.778Z,1.8106
2023-05-02T11:05:37.840Z,1.9835
2023-05-02T11:06:40.238Z,2.6712
2023-05-02T11:07:42.274Z,2.5067
2023-05-02T11:08:44.350Z,1.5168
2023-05-02T11:09:46.671Z,3.6592
2023-05-02T11:10:48.749Z,4.1418
2023-05-02T11:11:58.325Z,3.4413
2023-05-02T11:12:53.458Z,4.2774
2023-05-02T11:13:55.523Z,4.1984
2023-05-02T11:14:57.640Z,3.3227
2023-05-02T11:16:00.232Z,2.9037
2023-05-02T11:17:02.287Z,3.7767
2023-05-02T11:18:12.124Z,2.1575
2023-05-02T11:19:06.956Z,1.6190
2023-05-02T11:20:09.048Z,4.6057
2023-05-02T11:21:11.115Z,5.6001
2023-05-02T11:22:13.248Z,4.5501
2023-05-02T11:23:15.279Z,2.0407
2023-05-02T11:24:17.382Z,2.8554
2023-05-02T11:25:19.465Z,2.3330
2023-05-02T11:26:21.557Z,5.4226
2023-05-02T11:27:23.655Z,1.3994
2023-05-02T11:28:25.731Z,2.1575
2023-05-02T11:29:27.828Z,1.1663
2023-05-02T11:30:29.972Z,3.6145
2023-05-02T11:31:32.092Z,4.4859
2023-05-02T11:32:34.419Z,6.5025
2023-05-02T11:33:36.509Z,2.0407
2023-05-02T11:34:38.598Z,4.9557
2023-05-02T11:35:44.563Z,3.0176
2023-05-02T11:36:54.309Z,1.7161
2023-05-02T11:37:56.386Z,0.3492
2023-05-02T11:38:58.488Z,4.3141
2023-05-02T11:40:00.588Z,6.4706
2023-05-02T11:41:02.689Z,3.7897
2023-05-02T11:42:04.774Z,1.6325
2023-05-02T11:43:06.810Z,2.3918
2023-05-02T11:44:08.951Z,4.8994
2023-05-02T11:45:11.010Z,3.3211
2023-05-02T11:46:13.108Z,2.5667
2023-05-02T11:47:15.143Z,1.8666
2023-05-02T11:48:17.249Z,2.0996
2023-05-02T11:49:19.326Z,1.8071
2023-05-02T11:50:21.420Z,1.1663
2023-05-02T11:51:23.509Z,1.1659
2023-05-02T11:52:26.242Z,0.1731
2023-05-02T11:53:28.283Z,0.5251
2023-05-02T11:54:30.618Z,0.5229
2023-05-02T11:55:36.608Z,4.9377
2023-05-02T11:56:38.679Z,4.1412
2023-05-02T11:58:40.997Z,6.1228
2023-05-02T12:00:43.600Z,2.3898
2023-05-02T12:01:45.678Z,2.2162
2023-05-02T12:02:47.812Z,2.6841
2023-05-02T12:03:50.007Z,3.7808
2023-05-02T12:04:52.127Z,2.9111
2023-05-02T12:05:54.287Z,3.0326
2023-05-02T12:06:56.445Z,3.4472
2023-05-02T12:07:58.585Z,4.1764
2023-05-02T12:09:00.682Z,5.1883
2023-05-02T12:10:03.069Z,4.7014
2023-05-02T12:11:05.192Z,5.5948
2023-05-02T12:13:10.168Z,5.7690
2023-05-02T12:14:10.288Z,3.7232
2023-05-02T12:15:12.449Z,3.1451
2023-05-02T12:16:14.671Z,3.2622
2023-05-02T12:17:16.838Z,5.3475
2023-05-02T12:18:20.760Z,5.0491
2023-05-02T12:19:20.486Z,3.8393
2023-05-02T12:20:22.609Z,1.6322
2023-05-02T12:21:24.726Z,2.2147
2023-05-02T12:22:26.857Z,4.5458
2023-05-02T12:23:28.956Z,2.9143
2023-05-02T12:24:31.100Z,3.4968
2023-05-02T12:25:33.194Z,5.3621
2023-05-02T12:26:35.313Z,9.3842
2023-05-02T12:27:57.419Z,11.3169
2023-05-02T12:28:52.267Z,12.1800
2023-05-02T12:29:54.378Z,15.4515
2023-05-02T12:30:56.511Z,15.4396
2023-05-02T12:31:58.725Z,9.6169
2023-05-02T12:33:00.898Z,9.7732
2023-05-02T12:34:03.009Z,7.3949
2023-05-02T12:35:05.120Z,15.0416
2023-05-02T12:36:07.200Z,11.3716
2023-05-02T12:37:09.363Z,10.1964
2023-05-02T12:38:11.844Z,14.0682
2023-05-02T12:39:13.725Z,7.2540
2023-05-02T12:40:15.829Z,10.5477
2023-05-02T12:41:17.950Z,14.2307
2023-05-02T12:42:20.057Z,12.4159
2023-05-02T12:43:22.280Z,4.8958
2023-05-02T12:44:24.397Z,7.0380
2023-05-02T12:45:26.731Z,5.5174
2023-05-02T12:46:28.912Z,10.4293
2023-05-02T12:47:31.078Z,5.1836
2023-05-02T12:48:33.148Z,7.1661
2023-05-02T12:49:35.524Z,9.2269
2023-05-02T12:50:37.620Z,9.2679
2023-05-02T12:51:39.719Z,8.5117
2023-05-02T12:52:41.811Z,6.1224
2023-05-02T12:53:43.960Z,9.2124
2023-05-02T12:54:46.668Z,8.9515
2023-05-02T12:55:48.897Z,9.6405
2023-05-02T12:56:50.993Z,7.4635
2023-05-02T12:57:53.083Z,6.9366
2023-05-02T12:58:55.169Z,5.0728
2023-05-02T12:59:57.253Z,4.7235
2023-05-02T13:00:59.496Z,6.0638
2023-05-02T13:02:01.600Z,4.0722
2023-05-02T13:03:03.761Z,3.2060